الصفحة الرئيسية
METAR-TAF:

METAR-TAF

مطار :

La Junta Municipal Airport

La Junta, كولورادو, الولايات المتحدة

دائرة عرض: 38-02-58N, خط طول: 103-30-44W, ارتفاع: 1288 متر

مراقبة الطقس الحالي

تاريخ ووقت الإصدار 18 دقيقة قبل الساعة 14:53UTC
ريح 3 عقدة من الغرب
درجة الحرارة 7°درجة مئوية
الرطوبة 70%
ضغط 1034 hPa
الرؤية: 16.1 كم
ملبد بالغيوم على ارتفاع 9500 قدم

METAR: KLHX 171453Z AUTO 27003KT 10SM OVC095 07/02 A3052 RMK AO2 SLP330 T00720017 53015

زمن: 09:11 (15:11 UTC)


TAF: مفقودة

أرصاد الطقس والتوقعات من أكثر من 4000 مطار (تقارير الطقس للمطار METAR والتنبؤ بالطقس بالمطارTAF).

المحطات المتاحة هي النقط الصفراء والحمراء على الخريطة.

حرك المؤشر فوق النقطة لمعرفة اسم المحطة.

ثم انقر لمعرفة أرصاد وتوقعات الطقس.

لتغيير الخارطة: اضغط على الأزرار الخضراء مع رمز الصليب الأسود للتكبير. على الزر الأخضر مع شرطة للتصغير، أو على الأسهم الخضراء للخرائط المجاورة.


METAR-TAF: